Oxford House, Canada
Current Conditions -  °F | °C
As of 11:00 PM on Friday 24 Oct 2014 (Local Time) from CYIV Reporting Station
Rain Showers Rain Showers  
Wind Chill: 37°   Ceiling: 1200
Heat Index: 45°   Visibility: 12mi
Dew Point: 43°   Wind: 18mph
Humidity: 93%   Direction: 280°W
Pressure: 29.45"   Gusts: 28mph
Location:  54.95°N, 95.27°W
Report Text: CYIV 250400Z 28016G24KT 12SM -SHRA OVC012 07/06 A2945 RMK SC8TCU EMBD SLP983
Loading
Personal Weather Stations






























Interactive Weather Map
Tropical Storm Tracking
New forecast layout! Learn more

10-Day Weather Forecast

Advertisements
Track Severe Weather on mobile